createdAt,value
2023-01-29T00:02:42.833Z,51.79
2023-01-29T00:05:28.753Z,51.52
2023-01-29T00:08:13.409Z,51.30
2023-01-29T00:10:58.079Z,51.41
2023-01-29T00:13:43.101Z,51.29
2023-01-29T00:16:28.547Z,51.41
2023-01-29T00:19:13.746Z,51.57
2023-01-29T00:21:58.457Z,51.74
2023-01-29T00:24:43.478Z,51.84
2023-01-29T00:27:28.279Z,51.36
2023-01-29T00:30:13.053Z,51.06
2023-01-29T00:32:58.108Z,50.98
2023-01-29T00:35:42.845Z,50.86
2023-01-29T00:38:27.576Z,50.88
2023-01-29T00:41:12.361Z,50.85
2023-01-29T00:43:57.355Z,50.85
2023-01-29T00:46:42.308Z,51.27
2023-01-29T00:49:27.126Z,51.67
2023-01-29T00:52:12.012Z,51.94
2023-01-29T00:54:56.831Z,51.68
2023-01-29T00:57:41.628Z,51.54
2023-01-29T01:00:26.633Z,51.98
2023-01-29T01:03:11.301Z,52.05
2023-01-29T01:05:56.038Z,51.76
2023-01-29T01:08:40.808Z,51.76
2023-01-29T01:11:25.590Z,51.97
2023-01-29T01:14:10.537Z,51.54
2023-01-29T01:16:56.411Z,51.11
2023-01-29T01:19:41.135Z,50.83
2023-01-29T01:22:25.864Z,50.43
2023-01-29T01:25:10.721Z,50.44
2023-01-29T01:27:55.409Z,50.28
2023-01-29T01:30:40.212Z,50.79
2023-01-29T01:33:24.768Z,50.91
2023-01-29T01:36:09.604Z,50.77
2023-01-29T01:38:54.424Z,50.73
2023-01-29T01:41:39.139Z,50.06
2023-01-29T01:44:24.014Z,50.16
2023-01-29T01:47:08.595Z,50.65
2023-01-29T01:49:53.439Z,50.78
2023-01-29T01:52:38.200Z,51.10
2023-01-29T01:55:23.096Z,51.13
2023-01-29T01:58:07.842Z,51.02
2023-01-29T02:00:52.573Z,50.35
2023-01-29T02:03:37.400Z,50.53
2023-01-29T02:06:22.122Z,50.55
2023-01-29T02:09:07.048Z,50.69
2023-01-29T02:11:51.816Z,50.62
2023-01-29T02:14:36.690Z,50.61
2023-01-29T02:17:21.383Z,50.80
2023-01-29T02:20:06.213Z,51.01
2023-01-29T02:22:50.856Z,51.00
2023-01-29T02:25:35.623Z,51.02
2023-01-29T02:28:20.447Z,50.84
2023-01-29T02:31:05.233Z,50.79
2023-01-29T02:33:50.619Z,50.58
2023-01-29T02:36:35.422Z,50.75
2023-01-29T02:39:20.247Z,50.83
2023-01-29T02:42:04.905Z,51.13
2023-01-29T02:44:49.678Z,51.13
2023-01-29T02:47:34.443Z,51.41
2023-01-29T02:50:19.407Z,51.80
2023-01-29T02:53:04.467Z,51.98
2023-01-29T02:55:49.273Z,51.88
2023-01-29T02:58:34.012Z,51.87
2023-01-29T03:01:18.880Z,52.05
2023-01-29T03:04:03.635Z,51.88
2023-01-29T03:06:48.277Z,51.75
2023-01-29T03:09:33.171Z,51.43
2023-01-29T03:12:19.726Z,51.17
2023-01-29T03:15:05.148Z,51.14
2023-01-29T03:17:49.899Z,51.02
2023-01-29T03:20:34.638Z,50.70
2023-01-29T03:23:19.466Z,51.06
2023-01-29T03:26:04.035Z,51.30
2023-01-29T03:28:48.819Z,51.22
2023-01-29T03:31:33.697Z,51.16
2023-01-29T03:34:18.977Z,51.21
2023-01-29T03:37:03.745Z,51.24
2023-01-29T03:39:48.494Z,51.24
2023-01-29T03:42:33.196Z,51.60
2023-01-29T03:45:18.084Z,51.18
2023-01-29T03:48:02.828Z,51.21
2023-01-29T03:50:47.616Z,52.02
2023-01-29T03:53:32.489Z,52.13
2023-01-29T03:56:17.316Z,52.77
2023-01-29T03:59:01.974Z,53.14
2023-01-29T04:01:46.679Z,53.04
2023-01-29T04:04:31.415Z,53.00
2023-01-29T04:07:16.158Z,52.84
2023-01-29T04:10:00.987Z,53.37
2023-01-29T04:12:45.757Z,53.31
2023-01-29T04:15:30.585Z,53.00
2023-01-29T04:18:15.363Z,52.28
2023-01-29T04:21:00.177Z,52.33
2023-01-29T04:23:45.161Z,52.31
2023-01-29T04:26:29.932Z,52.09
2023-01-29T04:29:14.798Z,51.97
2023-01-29T04:31:59.447Z,51.75
2023-01-29T04:34:44.330Z,52.13
2023-01-29T04:37:29.091Z,52.19
2023-01-29T04:40:13.876Z,52.08
2023-01-29T04:42:58.857Z,52.10
2023-01-29T04:45:43.798Z,51.76
2023-01-29T04:48:28.671Z,51.71
2023-01-29T04:51:13.326Z,51.71
2023-01-29T04:53:58.213Z,51.68
2023-01-29T04:56:42.949Z,51.71
2023-01-29T04:59:27.837Z,51.89
2023-01-29T05:02:12.471Z,52.27
2023-01-29T05:04:57.325Z,52.78
2023-01-29T05:07:42.036Z,52.58
2023-01-29T05:10:26.914Z,52.66
2023-01-29T05:13:11.539Z,53.40
2023-01-29T05:15:56.268Z,53.52
2023-01-29T05:18:41.106Z,53.36
2023-01-29T05:21:25.823Z,52.88
2023-01-29T05:24:10.731Z,52.61
2023-01-29T05:26:55.472Z,53.04
2023-01-29T05:29:40.412Z,52.64
2023-01-29T05:32:25.062Z,52.63
2023-01-29T05:35:09.713Z,52.32
2023-01-29T05:37:54.396Z,51.95
2023-01-29T05:40:39.184Z,51.69
2023-01-29T05:43:23.878Z,51.42
2023-01-29T05:46:08.627Z,51.21
2023-01-29T05:48:53.466Z,51.31
2023-01-29T05:51:38.350Z,51.11
2023-01-29T05:54:23.224Z,51.16
2023-01-29T05:57:07.896Z,51.20
2023-01-29T05:59:52.718Z,51.55
2023-01-29T06:02:37.490Z,51.49
2023-01-29T06:05:22.190Z,51.16
2023-01-29T06:08:06.873Z,51.35
2023-01-29T06:10:51.675Z,50.91
2023-01-29T06:13:36.356Z,51.12
2023-01-29T06:16:21.223Z,50.95
2023-01-29T06:19:05.964Z,50.94
2023-01-29T06:21:50.744Z,51.11
2023-01-29T06:24:35.556Z,51.16
2023-01-29T06:27:20.335Z,51.17
2023-01-29T06:30:05.074Z,50.74
2023-01-29T06:32:49.932Z,50.89
2023-01-29T06:35:34.770Z,50.64
2023-01-29T06:38:19.563Z,50.76
2023-01-29T06:41:04.315Z,50.61
2023-01-29T06:43:49.037Z,50.77
2023-01-29T06:46:33.915Z,51.05
2023-01-29T06:49:19.009Z,51.23
2023-01-29T06:52:03.997Z,51.07
2023-01-29T06:54:48.792Z,50.97
2023-01-29T06:57:33.358Z,51.36
2023-01-29T07:00:18.508Z,51.50
2023-01-29T07:03:03.237Z,51.36
2023-01-29T07:05:47.947Z,51.07
2023-01-29T07:08:32.657Z,51.00
2023-01-29T07:11:17.493Z,50.98
2023-01-29T07:14:02.233Z,51.44
2023-01-29T07:16:46.893Z,52.08
2023-01-29T07:19:31.757Z,52.45
2023-01-29T07:22:16.566Z,52.51
2023-01-29T07:25:01.523Z,52.57
2023-01-29T07:27:46.065Z,52.29
2023-01-29T07:30:30.768Z,52.05
2023-01-29T07:33:15.546Z,52.43
2023-01-29T07:36:00.425Z,52.73
2023-01-29T07:38:45.191Z,52.41
2023-01-29T07:41:29.938Z,51.98
2023-01-29T07:44:14.689Z,51.83
2023-01-29T07:46:59.604Z,51.38
2023-01-29T07:49:44.474Z,51.48
2023-01-29T07:52:29.124Z,51.29
2023-01-29T07:55:13.908Z,51.05
2023-01-29T07:57:58.613Z,50.32
2023-01-29T08:00:43.452Z,50.12
2023-01-29T08:03:28.225Z,50.27
2023-01-29T08:06:12.976Z,49.91
2023-01-29T08:08:57.697Z,49.50
2023-01-29T08:11:42.625Z,50.05
2023-01-29T08:14:27.393Z,49.19
2023-01-29T08:17:12.085Z,49.59
2023-01-29T08:19:56.828Z,49.06
2023-01-29T08:22:41.487Z,49.80
2023-01-29T08:25:26.763Z,50.65
2023-01-29T08:28:11.585Z,49.76
2023-01-29T08:30:56.600Z,49.93
2023-01-29T08:33:41.777Z,48.82
2023-01-29T08:36:26.455Z,47.95
2023-01-29T08:39:11.194Z,48.43
2023-01-29T08:41:56.027Z,47.46
2023-01-29T08:44:40.792Z,48.92
2023-01-29T08:47:25.735Z,48.92
2023-01-29T08:50:11.294Z,48.02
2023-01-29T08:52:55.911Z,49.22
2023-01-29T08:55:40.822Z,49.98
2023-01-29T08:58:26.057Z,49.62
2023-01-29T09:01:10.793Z,48.89
2023-01-29T09:03:55.451Z,48.40
2023-01-29T09:06:40.218Z,47.23
2023-01-29T09:09:24.984Z,46.82
2023-01-29T09:12:09.703Z,45.64
2023-01-29T09:14:54.518Z,44.78
2023-01-29T09:17:39.214Z,43.67
2023-01-29T09:20:24.176Z,42.67
2023-01-29T09:23:09.195Z,42.47
2023-01-29T09:25:53.977Z,42.15
2023-01-29T09:28:38.658Z,41.86
2023-01-29T09:31:23.485Z,41.24
2023-01-29T09:34:08.593Z,41.37
2023-01-29T09:36:53.389Z,41.80
2023-01-29T09:39:38.213Z,40.28
2023-01-29T09:42:23.009Z,41.69
2023-01-29T09:45:07.856Z,42.96
2023-01-29T09:47:52.481Z,43.50
2023-01-29T09:50:37.377Z,43.72
2023-01-29T09:53:22.081Z,42.75
2023-01-29T09:56:06.896Z,42.09
2023-01-29T09:58:51.542Z,41.60
2023-01-29T10:01:36.310Z,40.79
2023-01-29T10:04:21.478Z,41.88
2023-01-29T10:07:06.169Z,41.65
2023-01-29T10:09:50.993Z,40.90
2023-01-29T10:12:35.699Z,40.55
2023-01-29T10:15:20.519Z,42.37
2023-01-29T10:18:05.318Z,41.41
2023-01-29T10:20:49.973Z,42.84
2023-01-29T10:23:34.965Z,43.44
2023-01-29T10:26:20.057Z,44.37
2023-01-29T10:29:04.661Z,43.06
2023-01-29T10:31:49.537Z,43.45
2023-01-29T10:34:34.644Z,43.00
2023-01-29T10:37:19.516Z,43.59
2023-01-29T10:40:04.309Z,43.62
2023-01-29T10:42:49.469Z,43.69
2023-01-29T10:45:34.587Z,43.22
2023-01-29T10:48:19.315Z,43.22
2023-01-29T10:51:04.079Z,43.30
2023-01-29T10:53:48.863Z,42.73
2023-01-29T10:56:33.652Z,42.54
2023-01-29T10:59:18.351Z,41.90
2023-01-29T11:02:03.177Z,42.72
2023-01-29T11:04:48.018Z,43.52
2023-01-29T11:07:32.734Z,42.55
2023-01-29T11:10:17.882Z,44.22
2023-01-29T11:13:02.785Z,44.67
2023-01-29T11:15:47.620Z,45.17
2023-01-29T11:18:32.341Z,44.34
2023-01-29T11:21:17.026Z,44.67
2023-01-29T11:24:01.740Z,45.61
2023-01-29T11:26:46.546Z,44.93
2023-01-29T11:29:32.092Z,44.73
2023-01-29T11:32:17.070Z,44.96
2023-01-29T11:35:01.831Z,46.06
2023-01-29T11:37:46.796Z,45.20
2023-01-29T11:40:31.568Z,44.40
2023-01-29T11:43:16.284Z,43.71
2023-01-29T11:46:01.055Z,43.46
2023-01-29T11:48:45.897Z,44.12
2023-01-29T11:51:30.677Z,45.79
2023-01-29T11:54:15.604Z,45.41
2023-01-29T11:57:00.399Z,45.50
2023-01-29T11:59:45.255Z,45.14
2023-01-29T12:02:29.877Z,44.06
2023-01-29T12:05:14.693Z,44.49
2023-01-29T12:07:59.391Z,45.74
2023-01-29T12:10:44.231Z,45.84
2023-01-29T12:13:28.881Z,45.10
2023-01-29T12:16:13.603Z,45.23
2023-01-29T12:18:58.401Z,45.48
2023-01-29T12:21:43.134Z,44.51
2023-01-29T12:24:27.954Z,44.64
2023-01-29T12:27:12.774Z,44.95
2023-01-29T12:29:57.588Z,45.23
2023-01-29T12:32:42.363Z,45.55
2023-01-29T12:35:27.123Z,45.65
2023-01-29T12:38:11.889Z,46.13
2023-01-29T12:40:56.640Z,45.36
2023-01-29T12:43:41.414Z,44.81
2023-01-29T12:46:26.157Z,45.93
2023-01-29T12:49:10.808Z,45.83
2023-01-29T12:51:55.633Z,45.64
2023-01-29T12:54:40.341Z,44.74
2023-01-29T12:57:25.084Z,45.65
2023-01-29T13:00:09.915Z,46.55
2023-01-29T13:02:54.820Z,47.44
2023-01-29T13:05:39.478Z,48.20
2023-01-29T13:08:24.274Z,48.00
2023-01-29T13:11:09.001Z,47.92
2023-01-29T13:13:54.369Z,48.98
2023-01-29T13:16:39.609Z,48.33
2023-01-29T13:19:24.777Z,48.67
2023-01-29T13:22:09.633Z,48.94
2023-01-29T13:25:04.000Z,48.29
2023-01-29T13:27:49.685Z,48.53
2023-01-29T13:30:34.350Z,47.91
2023-01-29T13:33:19.250Z,47.83
2023-01-29T13:36:03.922Z,47.26
2023-01-29T13:38:48.763Z,46.74
2023-01-29T13:41:33.851Z,46.52
2023-01-29T13:44:18.838Z,46.17
2023-01-29T13:47:03.942Z,45.61
2023-01-29T13:49:48.717Z,45.00
2023-01-29T13:52:33.492Z,45.46
2023-01-29T13:55:18.484Z,45.52
2023-01-29T13:58:03.767Z,45.29
2023-01-29T14:00:48.528Z,45.85
2023-01-29T14:03:56.140Z,45.08
2023-01-29T14:06:38.354Z,45.23
2023-01-29T14:09:23.149Z,45.66
2023-01-29T14:12:08.498Z,45.59
2023-01-29T14:14:53.340Z,45.01
2023-01-29T14:17:37.973Z,45.07
2023-01-29T14:20:24.281Z,45.43
2023-01-29T14:23:10.569Z,45.35
2023-01-29T14:25:55.346Z,44.79
2023-01-29T14:28:40.035Z,44.77
2023-01-29T14:31:24.948Z,45.57
2023-01-29T14:34:09.650Z,45.98
2023-01-29T14:36:54.356Z,46.29
2023-01-29T14:39:39.239Z,45.80
2023-01-29T14:42:24.030Z,45.63
2023-01-29T14:45:08.822Z,46.15
2023-01-29T14:47:53.440Z,45.66
2023-01-29T14:50:38.445Z,46.10
2023-01-29T14:53:23.186Z,46.52
2023-01-29T14:56:07.917Z,46.08
2023-01-29T14:58:52.554Z,46.72
2023-01-29T15:01:37.415Z,47.03
2023-01-29T15:04:22.254Z,47.69
2023-01-29T15:07:07.029Z,48.17
2023-01-29T15:09:51.785Z,48.47
2023-01-29T15:12:36.505Z,48.93
2023-01-29T15:15:21.240Z,49.12
2023-01-29T15:18:05.925Z,49.75
2023-01-29T15:20:50.789Z,49.88
2023-01-29T15:23:35.563Z,50.32
2023-01-29T15:26:20.391Z,50.29
2023-01-29T15:29:05.568Z,50.71
2023-01-29T15:31:50.546Z,50.66
2023-01-29T15:34:35.810Z,50.13
2023-01-29T15:37:20.497Z,50.04
2023-01-29T15:40:05.294Z,49.94
2023-01-29T15:42:49.933Z,50.15
2023-01-29T15:45:34.743Z,49.65
2023-01-29T15:48:19.536Z,50.17
2023-01-29T15:51:04.356Z,50.07
2023-01-29T15:53:48.969Z,49.80
2023-01-29T15:56:33.892Z,50.28
2023-01-29T15:59:18.716Z,50.13
2023-01-29T16:02:03.575Z,50.61
2023-01-29T16:04:48.450Z,50.46
2023-01-29T16:07:33.075Z,50.21
2023-01-29T16:10:17.934Z,50.87
2023-01-29T16:13:02.706Z,50.93
2023-01-29T16:15:47.720Z,50.32
2023-01-29T16:18:34.494Z,50.75
2023-01-29T16:21:20.164Z,51.10
2023-01-29T16:24:05.128Z,50.78
2023-01-29T16:26:49.876Z,51.05
2023-01-29T16:29:34.695Z,50.25
2023-01-29T16:32:19.394Z,50.95
2023-01-29T16:35:04.171Z,51.53
2023-01-29T16:37:48.760Z,51.05
2023-01-29T16:40:33.520Z,51.21
2023-01-29T16:43:18.286Z,51.67
2023-01-29T16:46:03.023Z,51.72
2023-01-29T16:48:47.810Z,52.03
2023-01-29T16:51:33.145Z,52.18
2023-01-29T16:54:17.826Z,52.34
2023-01-29T16:57:02.553Z,52.66
2023-01-29T16:59:47.422Z,52.83
2023-01-29T17:02:32.046Z,52.89
2023-01-29T17:05:17.116Z,53.06
2023-01-29T17:08:02.167Z,53.81
2023-01-29T17:10:46.783Z,53.06
2023-01-29T17:13:31.513Z,52.94
2023-01-29T17:16:16.368Z,53.22
2023-01-29T17:19:01.144Z,53.79
2023-01-29T17:21:45.837Z,53.79
2023-01-29T17:24:30.613Z,53.68
2023-01-29T17:27:15.510Z,53.61
2023-01-29T17:30:00.352Z,53.20
2023-01-29T17:32:47.437Z,53.22
2023-01-29T17:35:33.280Z,52.85
2023-01-29T17:38:26.006Z,53.24
2023-01-29T17:41:11.718Z,53.34
2023-01-29T17:43:56.422Z,53.09
2023-01-29T17:46:41.647Z,53.23
2023-01-29T17:49:26.327Z,53.09
2023-01-29T17:52:11.037Z,52.90
2023-01-29T17:54:55.808Z,52.62
2023-01-29T17:57:40.699Z,52.20
2023-01-29T18:00:25.484Z,51.67
2023-01-29T18:03:10.302Z,51.57
2023-01-29T18:05:55.281Z,51.56
2023-01-29T18:08:39.939Z,51.65
2023-01-29T18:11:24.685Z,51.95
2023-01-29T18:14:13.521Z,52.74
2023-01-29T18:16:59.297Z,53.74
2023-01-29T18:19:44.078Z,54.03
2023-01-29T18:22:28.869Z,54.61
2023-01-29T18:25:13.717Z,54.16
2023-01-29T18:27:58.418Z,53.95
2023-01-29T18:30:43.484Z,52.87
2023-01-29T18:33:28.564Z,52.53
2023-01-29T18:36:13.374Z,52.08
2023-01-29T18:38:58.195Z,52.29
2023-01-29T18:41:42.985Z,52.95
2023-01-29T18:44:27.769Z,52.77
2023-01-29T18:47:12.400Z,53.24
2023-01-29T18:49:57.223Z,53.43
2023-01-29T18:52:41.958Z,52.98
2023-01-29T18:55:26.911Z,53.90
2023-01-29T18:58:29.578Z,53.71
2023-01-29T19:01:16.525Z,54.38
2023-01-29T19:04:01.380Z,54.14
2023-01-29T19:06:46.034Z,53.39
2023-01-29T19:09:30.854Z,53.08
2023-01-29T19:12:15.587Z,53.03
2023-01-29T19:15:00.395Z,52.61
2023-01-29T19:17:45.299Z,52.55
2023-01-29T19:20:30.093Z,52.54
2023-01-29T19:23:14.961Z,52.32
2023-01-29T19:25:59.825Z,52.55
2023-01-29T19:28:44.704Z,52.03
2023-01-29T19:31:29.317Z,52.32
2023-01-29T19:34:14.210Z,53.19
2023-01-29T19:36:58.915Z,53.00
2023-01-29T19:39:43.814Z,53.06
2023-01-29T19:42:28.644Z,52.80
2023-01-29T19:45:13.379Z,53.32
2023-01-29T19:47:58.129Z,53.74
2023-01-29T19:50:42.723Z,53.88
2023-01-29T19:53:27.511Z,54.76
2023-01-29T19:56:12.127Z,54.18
2023-01-29T19:58:57.160Z,53.94
2023-01-29T20:01:41.924Z,54.07
2023-01-29T20:04:26.760Z,54.08
2023-01-29T20:07:11.473Z,53.84
2023-01-29T20:09:56.893Z,53.24
2023-01-29T20:12:41.587Z,53.71
2023-01-29T20:15:26.392Z,53.47
2023-01-29T20:18:11.089Z,53.87
2023-01-29T20:20:55.757Z,53.59
2023-01-29T20:23:40.635Z,53.72
2023-01-29T20:26:25.630Z,53.35
2023-01-29T20:29:10.572Z,53.36
2023-01-29T20:31:55.268Z,53.14
2023-01-29T20:34:40.117Z,52.91
2023-01-29T20:37:24.801Z,52.43
2023-01-29T20:40:09.555Z,52.59
2023-01-29T20:42:54.919Z,51.83
2023-01-29T20:45:39.636Z,52.03
2023-01-29T20:48:24.541Z,52.52
2023-01-29T20:51:09.257Z,52.52
2023-01-29T20:53:54.566Z,52.37
2023-01-29T20:56:45.446Z,52.29
2023-01-29T20:59:31.460Z,52.06
2023-01-29T21:02:16.165Z,52.11
2023-01-29T21:05:00.827Z,51.76
2023-01-29T21:07:45.736Z,51.96
2023-01-29T21:10:30.600Z,51.84
2023-01-29T21:13:15.411Z,51.54
2023-01-29T21:16:00.298Z,51.81
2023-01-29T21:18:45.103Z,51.52
2023-01-29T21:21:30.062Z,51.93
2023-01-29T21:24:14.644Z,52.01
2023-01-29T21:26:59.586Z,51.61
2023-01-29T21:29:44.405Z,51.46
2023-01-29T21:32:29.215Z,51.23
2023-01-29T21:35:14.068Z,51.70
2023-01-29T21:37:58.750Z,51.78
2023-01-29T21:40:43.589Z,51.75
2023-01-29T21:43:28.230Z,51.69
2023-01-29T21:46:13.386Z,51.70
2023-01-29T21:48:58.461Z,51.68
2023-01-29T21:51:43.370Z,51.66
2023-01-29T21:54:28.150Z,51.69
2023-01-29T21:57:13.166Z,51.68
2023-01-29T21:59:57.834Z,51.36
2023-01-29T22:02:42.585Z,52.32
2023-01-29T22:05:27.188Z,52.47
2023-01-29T22:08:11.988Z,51.78
2023-01-29T22:10:56.829Z,51.70
2023-01-29T22:13:41.521Z,50.98
2023-01-29T22:16:26.560Z,50.64
2023-01-29T22:19:11.127Z,50.49
2023-01-29T22:21:56.042Z,50.86
2023-01-29T22:24:40.808Z,50.75
2023-01-29T22:27:25.578Z,50.25
2023-01-29T22:30:10.252Z,50.25
2023-01-29T22:32:54.936Z,50.22
2023-01-29T22:35:39.707Z,51.05
2023-01-29T22:38:24.514Z,50.36
2023-01-29T22:41:09.387Z,50.54
2023-01-29T22:43:54.092Z,50.56
2023-01-29T22:46:39.128Z,50.59
2023-01-29T22:49:24.039Z,49.97
2023-01-29T22:52:09.444Z,50.18
2023-01-29T22:54:54.301Z,49.99
2023-01-29T22:57:39.128Z,50.14
2023-01-29T23:00:24.023Z,50.51
2023-01-29T23:03:08.808Z,50.08
2023-01-29T23:05:53.630Z,50.08
2023-01-29T23:08:38.264Z,50.13
2023-01-29T23:11:23.108Z,50.21
2023-01-29T23:14:07.821Z,49.83
2023-01-29T23:16:52.520Z,49.84
2023-01-29T23:19:37.326Z,49.63
2023-01-29T23:22:22.138Z,50.14
2023-01-29T23:25:06.884Z,50.32
2023-01-29T23:27:51.801Z,50.22
2023-01-29T23:30:36.577Z,50.57
2023-01-29T23:33:21.916Z,50.45
2023-01-29T23:36:06.731Z,50.82
2023-01-29T23:38:51.516Z,50.75
2023-01-29T23:41:36.298Z,50.30
2023-01-29T23:44:20.902Z,49.84
2023-01-29T23:47:05.585Z,49.34
2023-01-29T23:49:50.427Z,49.35
2023-01-29T23:52:35.100Z,49.48
2023-01-29T23:55:19.824Z,50.06
2023-01-29T23:58:04.608Z,50.85
